Time;durP1;ratioP1;P1;durP2;ratioP2;P2;SDS_P1;SDS_P2;PMS_P1;PMS_P2;Temp;Humidity;BMP_temperature;BMP_pressure;BME280_temperature;BME280_humidity;BME280_pressure;Samples;Min_cycle;Max_cycle;Signal;HPM_P1;HPM_P2
2022/11/06 00:01:40;;;;;;;9.57;8.57;;;;;;;;;;5016124;28;20263;-73
2022/11/06 00:04:07;;;;;;;9.63;8.70;;;;;;;;;;5015894;28;20218;-73
2022/11/06 00:06:49;;;;;;;12.02;10.35;;;;;;;;;;5015831;28;20219;-73
2022/11/06 00:09:17;;;;;;;11.80;9.65;;;;;;;;;;5015765;28;20558;-73
2022/11/06 00:11:44;;;;;;;9.38;8.30;;;;;;;;;;5015914;28;20590;-73
2022/11/06 00:14:11;;;;;;;8.32;7.45;;;;;;;;;;5015480;28;20199;-73
2022/11/06 00:16:40;;;;;;;9.77;7.65;;;;;;;;;;5015359;28;20562;-73
2022/11/06 00:19:08;;;;;;;16.43;11.80;;;;;;;;;;5015734;28;20192;-73
2022/11/06 00:21:35;;;;;;;18.35;11.00;;;;;;;;;;5015526;28;20458;-73
2022/11/06 00:24:04;;;;;;;14.52;10.25;;;;;;;;;;5015684;28;20229;-73
2022/11/06 00:26:32;;;;;;;17.42;9.95;;;;;;;;;;5015688;28;20542;-73
2022/11/06 00:28:59;;;;;;;14.00;10.70;;;;;;;;;;5015499;28;20283;-73
2022/11/06 00:31:27;;;;;;;11.57;9.80;;;;;;;;;;5015515;28;20227;-73
2022/11/06 00:33:58;;;;;;;10.10;8.45;;;;;;;;;;5015400;28;20193;-73
2022/11/06 00:36:25;;;;;;;13.15;10.40;;;;;;;;;;5015317;28;20249;-73
2022/11/06 00:38:52;;;;;;;12.88;8.60;;;;;;;;;;5015230;28;20203;-73
2022/11/06 00:41:20;;;;;;;11.50;9.93;;;;;;;;;;5015172;28;20642;-73
2022/11/06 00:43:51;;;;;;;10.65;8.68;;;;;;;;;;5014967;28;20223;-73
2022/11/06 00:46:22;;;;;;;10.40;7.80;;;;;;;;;;5015256;28;20287;-73
2022/11/06 00:48:53;;;;;;;10.88;7.38;;;;;;;;;;5015038;28;20218;-73
2022/11/06 00:51:23;;;;;;;9.60;8.60;;;;;;;;;;5015227;28;20674;-73
2022/11/06 00:53:54;;;;;;;10.02;8.30;;;;;;;;;;5015067;28;20195;-73
2022/11/06 00:56:21;;;;;;;13.00;9.07;;;;;;;;;;5015049;28;20188;-73
2022/11/06 00:58:48;;;;;;;10.52;8.30;;;;;;;;;;5014850;28;20198;-73
2022/11/06 01:01:16;;;;;;;9.73;8.25;;;;;;;;;;5014803;28;20198;-73
2022/11/06 01:03:47;;;;;;;11.65;9.43;;;;;;;;;;5014806;28;20219;-73
2022/11/06 01:06:20;;;;;;;8.68;7.70;;;;;;;;;;5014703;28;20191;-73
2022/11/06 01:08:49;;;;;;;13.82;9.05;;;;;;;;;;5014796;28;20197;-73
2022/11/06 01:11:18;;;;;;;12.27;8.13;;;;;;;;;;5014543;28;20646;-73
2022/11/06 01:13:46;;;;;;;9.88;8.82;;;;;;;;;;5014442;28;20198;-73
2022/11/06 01:16:14;;;;;;;13.13;9.65;;;;;;;;;;5014472;28;20191;-73
2022/11/06 01:18:44;;;;;;;9.45;8.52;;;;;;;;;;5014484;28;20191;-73
2022/11/06 01:21:12;;;;;;;11.48;9.05;;;;;;;;;;5014606;28;20191;-73
2022/11/06 01:23:39;;;;;;;11.13;9.15;;;;;;;;;;5014236;28;20207;-73
2022/11/06 01:26:09;;;;;;;11.07;8.80;;;;;;;;;;5013746;28;20222;-73
2022/11/06 01:28:37;;;;;;;9.70;8.70;;;;;;;;;;5013994;28;20275;-73
2022/11/06 01:31:05;;;;;;;12.13;10.88;;;;;;;;;;5014194;28;20191;-73
2022/11/06 01:33:32;;;;;;;14.48;11.25;;;;;;;;;;5014413;28;20682;-73
2022/11/06 01:35:59;;;;;;;14.43;11.75;;;;;;;;;;5014306;28;20199;-73
2022/11/06 01:38:27;;;;;;;8.95;8.05;;;;;;;;;;5014194;28;20237;-73
2022/11/06 01:40:54;;;;;;;8.93;7.85;;;;;;;;;;5014054;28;20195;-73
2022/11/06 01:43:24;;;;;;;13.68;10.13;;;;;;;;;;5013997;28;20279;-73
2022/11/06 01:45:52;;;;;;;11.80;9.57;;;;;;;;;;5014213;28;20197;-73
2022/11/06 01:48:35;;;;;;;9.40;8.50;;;;;;;;;;5110925;27;20530;-64
2022/11/06 01:51:02;;;;;;;12.95;9.63;;;;;;;;;;5110784;28;20672;-65
2022/11/06 01:53:29;;;;;;;12.02;8.80;;;;;;;;;;5110754;28;20256;-64
2022/11/06 01:55:59;;;;;;;10.00;7.20;;;;;;;;;;5110858;28;20281;-64
2022/11/06 01:58:27;;;;;;;7.40;6.78;;;;;;;;;;5110596;28;20286;-64
2022/11/06 02:00:54;;;;;;;8.35;7.07;;;;;;;;;;5110774;28;20282;-64
2022/11/06 02:03:21;;;;;;;10.57;7.85;;;;;;;;;;5110731;28;20604;-64
2022/11/06 02:05:49;;;;;;;8.38;7.07;;;;;;;;;;5110482;28;20282;-64
2022/11/06 02:08:18;;;;;;;9.20;6.22;;;;;;;;;;5110386;28;20226;-64
2022/11/06 02:10:45;;;;;;;7.18;6.57;;;;;;;;;;5110559;28;20647;-63
2022/11/06 02:13:22;;;;;;;7.85;6.85;;;;;;;;;;5110450;28;20277;-63
2022/11/06 02:15:54;;;;;;;9.63;6.63;;;;;;;;;;5110452;28;20589;-63
2022/11/06 02:18:34;;;;;;;8.90;6.85;;;;;;;;;;5110317;28;20280;-64
2022/11/06 02:21:16;;;;;;;9.63;8.20;;;;;;;;;;5110216;28;20649;-64
2022/11/06 02:23:50;;;;;;;9.63;8.50;;;;;;;;;;5110323;28;20281;-63
2022/11/06 02:26:24;;;;;;;10.73;8.90;;;;;;;;;;5110003;28;20652;-63
2022/11/06 02:28:54;;;;;;;11.07;8.32;;;;;;;;;;5110344;28;20270;-64
2022/11/06 02:31:24;;;;;;;8.68;7.82;;;;;;;;;;5110535;28;20195;-64
2022/11/06 02:33:56;;;;;;;9.30;8.00;;;;;;;;;;5110073;28;20681;-64
2022/11/06 02:36:26;;;;;;;9.75;7.57;;;;;;;;;;5110073;28;20282;-63
2022/11/06 02:38:56;;;;;;;7.85;7.00;;;;;;;;;;5109972;28;20191;-64
2022/11/06 02:41:29;;;;;;;8.30;7.07;;;;;;;;;;5109817;28;20248;-63
2022/11/06 02:43:58;;;;;;;9.63;7.00;;;;;;;;;;5109970;28;20222;-64
2022/11/06 02:46:27;;;;;;;10.20;7.83;;;;;;;;;;5109648;28;20221;-64
2022/11/06 02:48:57;;;;;;;9.95;8.00;;;;;;;;;;5109836;28;20449;-63
2022/11/06 02:51:26;;;;;;;9.40;7.43;;;;;;;;;;5109705;28;20190;-63
2022/11/06 02:53:54;;;;;;;11.20;8.25;;;;;;;;;;5109858;28;20282;-64
2022/11/06 02:56:24;;;;;;;9.98;7.88;;;;;;;;;;5109717;28;20241;-64
2022/11/06 02:58:53;;;;;;;8.13;7.38;;;;;;;;;;5101500;28;20286;-64
2022/11/06 03:01:23;;;;;;;9.98;7.50;;;;;;;;;;5096030;28;20599;-64
2022/11/06 03:03:51;;;;;;;17.58;8.30;;;;;;;;;;5095846;28;20187;-64
2022/11/06 03:06:21;;;;;;;10.98;6.97;;;;;;;;;;5096235;28;20634;-64
2022/11/06 03:08:49;;;;;;;11.18;7.68;;;;;;;;;;5095817;28;20225;-64
2022/11/06 03:11:17;;;;;;;8.60;7.57;;;;;;;;;;5095894;28;20592;-64
2022/11/06 03:13:49;;;;;;;10.57;7.70;;;;;;;;;;5095722;28;20314;-64
2022/11/06 03:16:23;;;;;;;9.50;6.87;;;;;;;;;;5095674;28;20605;-64
2022/11/06 03:18:55;;;;;;;14.23;7.72;;;;;;;;;;5095527;28;20567;-64
2022/11/06 03:21:25;;;;;;;7.18;6.47;;;;;;;;;;5095793;28;20192;-64
2022/11/06 03:23:56;;;;;;;7.20;6.50;;;;;;;;;;5096080;28;20545;-64
2022/11/06 03:26:27;;;;;;;9.90;6.75;;;;;;;;;;5095611;28;20195;-64
2022/11/06 03:28:55;;;;;;;11.88;6.57;;;;;;;;;;5095385;28;20219;-64
2022/11/06 03:31:27;;;;;;;8.20;6.35;;;;;;;;;;5095641;28;20198;-64
2022/11/06 03:33:58;;;;;;;7.40;6.57;;;;;;;;;;5095497;28;20199;-64
2022/11/06 03:36:26;;;;;;;9.43;7.35;;;;;;;;;;5095508;28;20255;-64
2022/11/06 03:38:56;;;;;;;13.63;7.78;;;;;;;;;;5095170;28;20680;-64
2022/11/06 03:41:24;;;;;;;7.78;6.70;;;;;;;;;;5095235;28;20191;-64
2022/11/06 03:43:53;;;;;;;9.80;7.90;;;;;;;;;;5095102;28;20194;-64
2022/11/06 03:46:23;;;;;;;8.50;6.83;;;;;;;;;;5095019;28;20548;-64
2022/11/06 03:48:52;;;;;;;9.73;6.50;;;;;;;;;;5095138;28;20543;-65
2022/11/06 03:51:22;;;;;;;12.33;7.00;;;;;;;;;;5094965;28;20815;-64
2022/11/06 03:53:51;;;;;;;5.83;5.43;;;;;;;;;;5094962;28;20487;-64
2022/11/06 03:56:19;;;;;;;8.13;6.30;;;;;;;;;;5094697;28;20481;-64
2022/11/06 03:58:48;;;;;;;7.53;5.83;;;;;;;;;;5094804;28;20458;-64
2022/11/06 04:01:17;;;;;;;7.95;7.10;;;;;;;;;;5094906;28;20508;-64
2022/11/06 04:03:45;;;;;;;8.95;7.40;;;;;;;;;;5094815;28;20191;-64
2022/11/06 04:06:18;;;;;;;7.10;6.40;;;;;;;;;;5094737;28;20195;-64
2022/11/06 04:14:20;;;;;;;8.15;6.40;;;;;;;;;;5094531;28;20194;-64
2022/11/06 04:16:48;;;;;;;7.00;6.35;;;;;;;;;;5094414;28;20240;-64
2022/11/06 04:19:16;;;;;;;8.20;6.60;;;;;;;;;;5094606;28;20245;-64
2022/11/06 04:21:48;;;;;;;8.47;7.20;;;;;;;;;;5094516;28;20544;-64
2022/11/06 04:27:16;;;;;;;8.38;7.40;;;;;;;;;;5094328;28;20448;-65
2022/11/06 04:29:49;;;;;;;8.80;7.15;;;;;;;;;;5094341;28;20192;-64
2022/11/06 04:32:18;;;;;;;7.53;6.80;;;;;;;;;;5094392;28;20256;-64
2022/11/06 04:34:48;;;;;;;8.33;6.53;;;;;;;;;;5094210;28;20450;-64
2022/11/06 04:37:19;;;;;;;7.97;6.60;;;;;;;;;;5094147;28;20444;-64
2022/11/06 04:39:54;;;;;;;9.13;6.90;;;;;;;;;;5094068;28;20444;-64
2022/11/06 04:42:24;;;;;;;8.77;6.30;;;;;;;;;;5094269;28;20448;-64
2022/11/06 04:44:53;;;;;;;9.65;7.25;;;;;;;;;;5094333;28;20605;-64
2022/11/06 04:47:22;;;;;;;13.82;8.77;;;;;;;;;;5093682;28;20226;-64
2022/11/06 04:49:49;;;;;;;10.98;6.22;;;;;;;;;;5093938;28;20287;-64
2022/11/06 04:52:19;;;;;;;11.55;7.35;;;;;;;;;;5093796;28;20282;-64
2022/11/06 04:54:46;;;;;;;8.90;7.53;;;;;;;;;;5094026;28;20191;-64
2022/11/06 04:57:14;;;;;;;8.35;7.07;;;;;;;;;;5093701;28;20460;-64
2022/11/06 04:59:41;;;;;;;7.00;6.10;;;;;;;;;;5094064;28;20547;-64
2022/11/06 05:02:08;;;;;;;9.57;7.20;;;;;;;;;;5093712;28;20444;-64
2022/11/06 05:04:35;;;;;;;14.53;7.23;;;;;;;;;;5093607;28;20544;-64
2022/11/06 05:07:02;;;;;;;10.13;6.53;;;;;;;;;;5093500;28;20467;-64
2022/11/06 05:09:29;;;;;;;8.52;7.35;;;;;;;;;;5093586;28;20493;-64
2022/11/06 05:11:57;;;;;;;7.97;6.57;;;;;;;;;;5093712;28;20638;-64
2022/11/06 05:14:25;;;;;;;7.85;7.05;;;;;;;;;;5093560;28;20198;-64
2022/11/06 05:16:52;;;;;;;10.27;7.85;;;;;;;;;;5093487;28;20199;-64
2022/11/06 05:19:19;;;;;;;10.30;7.57;;;;;;;;;;5093327;28;20242;-64
2022/11/06 05:24:30;;;;;;;8.95;7.10;;;;;;;;;;5093303;28;20226;-64
2022/11/06 05:26:57;;;;;;;10.30;6.88;;;;;;;;;;5093280;28;20279;-64
2022/11/06 05:29:25;;;;;;;8.50;7.20;;;;;;;;;;5093227;28;20229;-64
2022/11/06 05:31:52;;;;;;;13.73;9.27;;;;;;;;;;5093184;28;20191;-65
2022/11/06 05:34:19;;;;;;;7.55;6.85;;;;;;;;;;5093032;28;20233;-64
2022/11/06 05:36:46;;;;;;;9.35;7.50;;;;;;;;;;5093365;28;20298;-64
2022/11/06 05:39:13;;;;;;;11.20;7.17;;;;;;;;;;5093317;28;20191;-64
2022/11/06 05:41:40;;;;;;;8.23;7.38;;;;;;;;;;5093142;28;20532;-64
2022/11/06 05:44:07;;;;;;;7.30;6.60;;;;;;;;;;5093155;28;20589;-64
2022/11/06 05:46:35;;;;;;;11.15;7.78;;;;;;;;;;5092829;28;20716;-64
2022/11/06 05:49:02;;;;;;;8.30;6.93;;;;;;;;;;5093206;28;20590;-64
2022/11/06 05:51:29;;;;;;;8.60;7.45;;;;;;;;;;5093113;28;20455;-64
2022/11/06 05:53:56;;;;;;;10.95;7.07;;;;;;;;;;5093136;28;20551;-64
2022/11/06 05:56:23;;;;;;;9.40;7.53;;;;;;;;;;5092918;28;20190;-64
2022/11/06 05:58:49;;;;;;;7.80;6.93;;;;;;;;;;5093394;28;20445;-64
2022/11/06 06:01:16;;;;;;;11.45;7.80;;;;;;;;;;5092895;28;20620;-64
2022/11/06 06:03:45;;;;;;;12.25;7.75;;;;;;;;;;5092919;28;20191;-64
2022/11/06 06:06:11;;;;;;;9.87;7.97;;;;;;;;;;5092963;28;20278;-64
2022/11/06 06:08:38;;;;;;;9.52;7.40;;;;;;;;;;5092599;28;20947;-64
2022/11/06 06:11:06;;;;;;;8.50;7.68;;;;;;;;;;5092810;28;20188;-64
2022/11/06 06:13:33;;;;;;;10.00;7.65;;;;;;;;;;5092809;28;20193;-64
2022/11/06 06:16:01;;;;;;;11.47;7.93;;;;;;;;;;5092615;28;20275;-64
2022/11/06 06:18:30;;;;;;;9.25;7.63;;;;;;;;;;5092933;28;20461;-64
2022/11/06 06:20:59;;;;;;;8.75;6.82;;;;;;;;;;5092860;28;20199;-64
2022/11/06 06:23:26;;;;;;;13.55;7.95;;;;;;;;;;5092728;28;20195;-64
2022/11/06 06:25:52;;;;;;;11.27;7.77;;;;;;;;;;5092641;28;20191;-64
2022/11/06 06:28:19;;;;;;;13.65;7.25;;;;;;;;;;5092505;28;20485;-64
2022/11/06 06:30:46;;;;;;;8.77;7.90;;;;;;;;;;5092848;28;20617;-64
2022/11/06 06:33:13;;;;;;;10.00;7.43;;;;;;;;;;5093377;28;20449;-64
2022/11/06 06:35:40;;;;;;;10.47;8.20;;;;;;;;;;5096546;28;20548;-64
2022/11/06 06:38:08;;;;;;;9.65;8.00;;;;;;;;;;5096376;28;20453;-64
2022/11/06 06:40:35;;;;;;;8.90;7.75;;;;;;;;;;5096333;28;20302;-65
2022/11/06 06:43:02;;;;;;;9.83;7.83;;;;;;;;;;5096238;28;20191;-64
2022/11/06 06:45:31;;;;;;;11.67;8.67;;;;;;;;;;5096427;28;20449;-64
2022/11/06 06:48:02;;;;;;;13.27;8.45;;;;;;;;;;5095950;28;20576;-64
2022/11/06 06:50:29;;;;;;;9.32;7.50;;;;;;;;;;5096240;28;20205;-64
2022/11/06 06:52:56;;;;;;;8.10;7.30;;;;;;;;;;5096234;28;20233;-64
2022/11/06 06:55:24;;;;;;;9.18;7.78;;;;;;;;;;5095941;28;20544;-64
2022/11/06 06:57:56;;;;;;;8.50;7.57;;;;;;;;;;5096105;28;20615;-64
2022/11/06 07:00:23;;;;;;;10.27;7.37;;;;;;;;;;5096071;28;20560;-64
2022/11/06 07:02:50;;;;;;;12.23;8.83;;;;;;;;;;5096035;28;20481;-64
2022/11/06 07:05:17;;;;;;;10.10;8.40;;;;;;;;;;5095951;28;20952;-64
2022/11/06 07:07:44;;;;;;;9.00;7.27;;;;;;;;;;5095729;28;20228;-64
2022/11/06 07:10:11;;;;;;;8.60;7.70;;;;;;;;;;5095911;28;20899;-64
2022/11/06 07:12:39;;;;;;;10.17;8.20;;;;;;;;;;5095788;28;20269;-64
2022/11/06 07:15:06;;;;;;;11.10;7.77;;;;;;;;;;5095751;28;20456;-64
2022/11/06 07:17:33;;;;;;;9.48;8.52;;;;;;;;;;5095701;28;20877;-64
2022/11/06 07:20:00;;;;;;;8.27;7.47;;;;;;;;;;5095541;28;20203;-64
2022/11/06 07:22:27;;;;;;;8.17;7.37;;;;;;;;;;5095347;28;20453;-64
2022/11/06 07:24:54;;;;;;;12.88;8.85;;;;;;;;;;5095570;28;20453;-65
2022/11/06 07:27:23;;;;;;;9.60;8.17;;;;;;;;;;5095414;28;20192;-64
2022/11/06 07:29:51;;;;;;;9.07;8.07;;;;;;;;;;5095279;28;20488;-64
2022/11/06 07:32:18;;;;;;;9.30;8.40;;;;;;;;;;5095313;28;20296;-64
2022/11/06 07:34:45;;;;;;;11.30;9.07;;;;;;;;;;5095183;28;20454;-65
2022/11/06 07:37:12;;;;;;;12.50;8.17;;;;;;;;;;5095081;28;20612;-64
2022/11/06 07:39:39;;;;;;;9.63;7.57;;;;;;;;;;5095300;28;20454;-64
2022/11/06 07:42:06;;;;;;;12.43;7.90;;;;;;;;;;5095162;28;20449;-64
2022/11/06 07:44:33;;;;;;;9.70;8.70;;;;;;;;;;5094961;28;21032;-64
2022/11/06 07:47:01;;;;;;;12.40;8.23;;;;;;;;;;5094794;28;20247;-64
2022/11/06 07:49:28;;;;;;;8.97;8.07;;;;;;;;;;5094792;28;20958;-64
2022/11/06 07:51:55;;;;;;;11.27;8.30;;;;;;;;;;5095095;28;20456;-64
2022/11/06 07:54:22;;;;;;;8.43;7.63;;;;;;;;;;5094861;28;20450;-64
2022/11/06 07:56:48;;;;;;;11.40;8.10;;;;;;;;;;5094713;28;21028;-64
2022/11/06 07:59:15;;;;;;;11.93;8.80;;;;;;;;;;5094822;28;20534;-64
2022/11/06 08:01:42;;;;;;;9.27;7.17;;;;;;;;;;5094693;28;20485;-64
2022/11/06 08:04:10;;;;;;;9.93;7.57;;;;;;;;;;5094550;28;21027;-64
2022/11/06 08:06:37;;;;;;;12.93;8.97;;;;;;;;;;5094280;28;20967;-64
2022/11/06 08:09:05;;;;;;;9.83;7.60;;;;;;;;;;5094632;28;20524;-64
2022/11/06 08:11:32;;;;;;;9.93;8.87;;;;;;;;;;5094573;28;20901;-64
2022/11/06 08:14:00;;;;;;;12.80;8.03;;;;;;;;;;5094550;28;20642;-64
2022/11/06 08:16:27;;;;;;;9.13;7.80;;;;;;;;;;5094308;28;20885;-64
2022/11/06 08:18:54;;;;;;;10.67;8.97;;;;;;;;;;5094537;28;20445;-64
2022/11/06 08:21:22;;;;;;;11.10;8.17;;;;;;;;;;5094407;28;20453;-64
2022/11/06 08:23:49;;;;;;;10.70;8.20;;;;;;;;;;5094312;28;20460;-64
2022/11/06 08:26:16;;;;;;;12.97;8.27;;;;;;;;;;5094209;28;20451;-64
2022/11/06 08:28:43;;;;;;;8.93;8.03;;;;;;;;;;5094042;28;20467;-64
2022/11/06 08:31:10;;;;;;;8.13;7.33;;;;;;;;;;5094024;28;20540;-64
2022/11/06 08:33:38;;;;;;;8.27;6.57;;;;;;;;;;5094236;28;20810;-64
2022/11/06 08:36:08;;;;;;;11.00;7.80;;;;;;;;;;5094149;28;20447;-64
2022/11/06 08:38:37;;;;;;;9.03;6.93;;;;;;;;;;5094058;28;20453;-64
2022/11/06 08:41:05;;;;;;;10.23;7.10;;;;;;;;;;5094045;28;20524;-64
2022/11/06 08:43:32;;;;;;;9.60;6.63;;;;;;;;;;5093748;28;20940;-64
2022/11/06 08:45:59;;;;;;;10.50;7.80;;;;;;;;;;5093767;28;20534;-64
2022/11/06 08:48:26;;;;;;;7.80;6.97;;;;;;;;;;5093600;28;20564;-64
2022/11/06 08:50:53;;;;;;;7.70;6.90;;;;;;;;;;5093852;28;20443;-64
2022/11/06 08:53:20;;;;;;;7.50;6.70;;;;;;;;;;5093652;28;20467;-64
2022/11/06 08:55:48;;;;;;;7.40;6.50;;;;;;;;;;5093211;28;20449;-64
2022/11/06 08:58:15;;;;;;;7.57;6.80;;;;;;;;;;5093450;28;20501;-64
2022/11/06 09:00:42;;;;;;;8.03;6.40;;;;;;;;;;5093760;28;20878;-64
2022/11/06 09:03:11;;;;;;;8.20;6.90;;;;;;;;;;5093523;28;21024;-64
2022/11/06 09:05:40;;;;;;;7.23;6.47;;;;;;;;;;5093580;28;20819;-64
2022/11/06 09:08:07;;;;;;;8.00;6.97;;;;;;;;;;5093592;28;20941;-64
2022/11/06 09:10:36;;;;;;;7.40;6.20;;;;;;;;;;5093367;28;20488;-64
2022/11/06 09:13:04;;;;;;;6.75;6.03;;;;;;;;;;5093323;28;20453;-63
2022/11/06 09:15:32;;;;;;;6.83;5.60;;;;;;;;;;5093483;28;20192;-64
2022/11/06 09:18:00;;;;;;;7.67;5.93;;;;;;;;;;5093321;28;20482;-64
2022/11/06 09:20:27;;;;;;;6.67;5.43;;;;;;;;;;5093331;28;20447;-64
2022/11/06 09:22:55;;;;;;;6.30;5.60;;;;;;;;;;5093210;28;20490;-63
2022/11/06 09:25:22;;;;;;;6.83;6.23;;;;;;;;;;5093095;28;20469;-64
2022/11/06 09:27:49;;;;;;;9.50;5.70;;;;;;;;;;5093088;28;20966;-64
2022/11/06 09:30:18;;;;;;;8.53;6.17;;;;;;;;;;5093106;28;20482;-63
2022/11/06 09:32:46;;;;;;;8.43;5.90;;;;;;;;;;5093026;28;20971;-64
2022/11/06 09:35:13;;;;;;;7.23;5.73;;;;;;;;;;5093024;28;20473;-64
2022/11/06 09:37:40;;;;;;;7.43;5.57;;;;;;;;;;5092882;28;20450;-65
2022/11/06 09:40:07;;;;;;;11.90;6.90;;;;;;;;;;5092891;28;20447;-64
2022/11/06 09:42:38;;;;;;;6.53;5.60;;;;;;;;;;5092889;28;20934;-64
2022/11/06 09:45:12;;;;;;;5.97;5.47;;;;;;;;;;5093065;28;20887;-64
2022/11/06 09:47:42;;;;;;;9.30;5.67;;;;;;;;;;5092813;28;20475;-64
2022/11/06 09:50:13;;;;;;;5.07;4.67;;;;;;;;;;5092795;28;20482;-64
2022/11/06 09:52:42;;;;;;;5.90;5.33;;;;;;;;;;5093121;28;20445;-64
2022/11/06 09:55:13;;;;;;;6.87;5.40;;;;;;;;;;5093164;28;20597;-64
2022/11/06 09:57:42;;;;;;;7.43;5.27;;;;;;;;;;5092866;28;20503;-64
2022/11/06 10:00:13;;;;;;;5.63;4.10;;;;;;;;;;5092706;28;20964;-64
2022/11/06 10:02:45;;;;;;;5.67;5.00;;;;;;;;;;5092745;28;20537;-65
2022/11/06 10:05:19;;;;;;;5.27;4.80;;;;;;;;;;5092651;28;20447;-64
2022/11/06 10:07:48;;;;;;;6.40;4.77;;;;;;;;;;5092840;28;20549;-64
2022/11/06 10:10:18;;;;;;;7.40;5.30;;;;;;;;;;5096642;28;21003;-64
2022/11/06 10:12:53;;;;;;;5.33;4.83;;;;;;;;;;5096734;28;20482;-64
2022/11/06 10:15:22;;;;;;;6.10;4.53;;;;;;;;;;5096619;28;20454;-64
2022/11/06 10:17:57;;;;;;;5.73;3.97;;;;;;;;;;5096831;28;20447;-64
2022/11/06 10:20:27;;;;;;;6.33;4.70;;;;;;;;;;5096700;28;20450;-64
2022/11/06 10:23:03;;;;;;;4.87;4.33;;;;;;;;;;5096526;28;20541;-64
2022/11/06 10:25:40;;;;;;;5.70;4.67;;;;;;;;;;5096605;28;20579;-64
2022/11/06 10:28:15;;;;;;;5.13;4.70;;;;;;;;;;5096756;28;20537;-64
2022/11/06 10:30:46;;;;;;;5.10;3.80;;;;;;;;;;5096509;28;20481;-64
2022/11/06 10:33:24;;;;;;;6.73;5.07;;;;;;;;;;5096397;28;20946;-64
2022/11/06 10:35:55;;;;;;;4.93;4.30;;;;;;;;;;5096376;28;20468;-64
2022/11/06 10:38:23;;;;;;;4.27;3.97;;;;;;;;;;5096215;28;20442;-64
2022/11/06 10:40:53;;;;;;;4.97;4.40;;;;;;;;;;5096171;28;20446;-64
2022/11/06 10:43:24;;;;;;;5.17;4.57;;;;;;;;;;5096181;28;20498;-64
2022/11/06 10:45:52;;;;;;;4.40;4.00;;;;;;;;;;5095567;28;20451;-64
2022/11/06 10:48:25;;;;;;;4.20;3.90;;;;;;;;;;5095877;28;21015;-64
2022/11/06 10:50:58;;;;;;;5.50;4.13;;;;;;;;;;5096018;28;20482;-64
2022/11/06 10:53:27;;;;;;;4.30;3.90;;;;;;;;;;5096684;28;20461;-64
2022/11/06 10:56:01;;;;;;;3.50;3.20;;;;;;;;;;5096090;28;20455;-64
2022/11/06 10:58:29;;;;;;;4.27;3.63;;;;;;;;;;5095982;28;20439;-64
2022/11/06 11:01:03;;;;;;;3.90;3.70;;;;;;;;;;5095800;28;20546;-64
2022/11/06 11:03:37;;;;;;;7.00;4.10;;;;;;;;;;5095664;28;20447;-64
2022/11/06 11:06:04;;;;;;;5.43;3.70;;;;;;;;;;5095962;28;20451;-64
2022/11/06 11:08:40;;;;;;;4.50;3.90;;;;;;;;;;5095794;28;20652;-64
2022/11/06 11:11:18;;;;;;;4.30;3.80;;;;;;;;;;5095665;28;20882;-64
2022/11/06 11:13:47;;;;;;;3.30;3.03;;;;;;;;;;5095592;28;20853;-64
2022/11/06 11:16:14;;;;;;;4.80;3.43;;;;;;;;;;5095689;28;20821;-64
2022/11/06 11:18:43;;;;;;;7.63;3.37;;;;;;;;;;5095309;28;20798;-64
2022/11/06 11:21:15;;;;;;;3.50;3.30;;;;;;;;;;5095280;28;20534;-64
2022/11/06 11:23:45;;;;;;;3.30;3.03;;;;;;;;;;5095300;28;20450;-64
2022/11/06 11:26:19;;;;;;;4.20;3.53;;;;;;;;;;5095323;28;20783;-64
2022/11/06 11:28:50;;;;;;;3.47;3.17;;;;;;;;;;5095476;28;20535;-64
2022/11/06 11:31:18;;;;;;;5.33;3.40;;;;;;;;;;5095349;28;20485;-64
2022/11/06 11:33:50;;;;;;;3.43;3.13;;;;;;;;;;5095232;28;20481;-64
2022/11/06 11:36:17;;;;;;;3.60;3.30;;;;;;;;;;5095261;28;21005;-64
2022/11/06 11:38:44;;;;;;;5.30;3.43;;;;;;;;;;5094993;28;20501;-64
2022/11/06 11:41:12;;;;;;;6.53;3.57;;;;;;;;;;5095219;28;20541;-64
2022/11/06 11:43:39;;;;;;;3.07;2.87;;;;;;;;;;5095199;28;20457;-64
2022/11/06 11:46:17;;;;;;;4.23;2.87;;;;;;;;;;5094927;28;20462;-64
2022/11/06 11:48:46;;;;;;;3.20;2.90;;;;;;;;;;5094953;28;20451;-64
2022/11/06 11:51:31;;;;;;;4.07;3.20;;;;;;;;;;5094700;28;20479;-64
2022/11/06 11:54:01;;;;;;;3.43;3.13;;;;;;;;;;5095036;28;20546;-64
2022/11/06 11:56:28;;;;;;;3.43;2.50;;;;;;;;;;5094861;28;20937;-64
2022/11/06 11:58:56;;;;;;;5.13;3.00;;;;;;;;;;5094816;28;20493;-64
2022/11/06 12:01:31;;;;;;;3.20;2.50;;;;;;;;;;5094663;28;20453;-64
2022/11/06 12:03:58;;;;;;;3.10;2.20;;;;;;;;;;5094915;28;20451;-64
2022/11/06 12:06:25;;;;;;;5.80;2.90;;;;;;;;;;5094777;28;20806;-64
2022/11/06 12:08:53;;;;;;;2.80;2.60;;;;;;;;;;5094675;28;20453;-64
2022/11/06 12:11:23;;;;;;;2.90;2.60;;;;;;;;;;5094421;28;20965;-64
2022/11/06 12:14:09;;;;;;;4.97;2.67;;;;;;;;;;5094420;28;20546;-63
2022/11/06 12:16:36;;;;;;;4.33;2.83;;;;;;;;;;5094489;28;20447;-64
2022/11/06 12:19:03;;;;;;;3.87;2.43;;;;;;;;;;5094480;28;20841;-63
2022/11/06 12:21:33;;;;;;;4.70;4.00;;;;;;;;;;5094260;28;20466;-63
2022/11/06 12:24:04;;;;;;;2.63;2.43;;;;;;;;;;5094112;28;20476;-63
2022/11/06 12:26:35;;;;;;;4.00;2.70;;;;;;;;;;5094254;28;20461;-63
2022/11/06 12:29:06;;;;;;;3.80;3.17;;;;;;;;;;5094280;28;20538;-64
2022/11/06 12:31:37;;;;;;;4.10;2.30;;;;;;;;;;5093325;28;20504;-63
2022/11/06 12:34:06;;;;;;;2.33;2.13;;;;;;;;;;5093936;28;20448;-63
2022/11/06 12:36:38;;;;;;;2.60;2.30;;;;;;;;;;5093859;28;20473;-63
2022/11/06 12:39:06;;;;;;;3.87;2.50;;;;;;;;;;5093952;28;20455;-63
2022/11/06 12:41:36;;;;;;;3.23;2.63;;;;;;;;;;5094058;28;20453;-64
2022/11/06 12:44:04;;;;;;;2.87;2.10;;;;;;;;;;5093880;28;20451;-63
2022/11/06 12:46:37;;;;;;;2.20;2.03;;;;;;;;;;5093540;28;20543;-63
2022/11/06 12:49:19;;;;;;;2.30;2.03;;;;;;;;;;5093637;28;20951;-63
2022/11/06 12:51:53;;;;;;;2.43;2.23;;;;;;;;;;5091450;28;20471;-63
2022/11/06 12:54:26;;;;;;;5.43;2.13;;;;;;;;;;5093858;28;20451;-63
2022/11/06 12:56:58;;;;;;;3.00;2.70;;;;;;;;;;5093699;28;20542;-63
2022/11/06 12:59:32;;;;;;;4.40;2.87;;;;;;;;;;5093513;28;20968;-63
2022/11/06 13:02:03;;;;;;;2.63;1.97;;;;;;;;;;5093549;28;20539;-63
2022/11/06 13:04:43;;;;;;;12.20;2.40;;;;;;;;;;5093669;28;20458;-64
2022/11/06 13:07:20;;;;;;;2.90;2.10;;;;;;;;;;5093548;28;20533;-64
2022/11/06 13:09:51;;;;;;;2.00;1.80;;;;;;;;;;5093364;28;20455;-64
2022/11/06 13:12:23;;;;;;;3.57;2.20;;;;;;;;;;5093253;28;20555;-64
2022/11/06 13:14:55;;;;;;;3.83;1.90;;;;;;;;;;5093521;28;20539;-64
2022/11/06 13:17:25;;;;;;;3.40;2.00;;;;;;;;;;5093447;28;20450;-64
2022/11/06 13:19:56;;;;;;;3.97;2.20;;;;;;;;;;5093353;28;20462;-63
2022/11/06 13:22:26;;;;;;;2.30;1.97;;;;;;;;;;5093218;28;20652;-63
2022/11/06 13:24:59;;;;;;;5.13;2.60;;;;;;;;;;5093070;28;20561;-64
2022/11/06 13:27:31;;;;;;;2.97;2.67;;;;;;;;;;5093336;28;20873;-63
2022/11/06 13:30:01;;;;;;;1.80;1.70;;;;;;;;;;5093254;28;20547;-63
2022/11/06 13:32:30;;;;;;;2.13;2.03;;;;;;;;;;5093187;28;20917;-63
2022/11/06 13:34:57;;;;;;;3.47;2.40;;;;;;;;;;5092984;28;20449;-63
2022/11/06 13:37:31;;;;;;;2.27;2.00;;;;;;;;;;5092727;28;20453;-63
2022/11/06 13:40:03;;;;;;;3.10;2.70;;;;;;;;;;5093219;28;20455;-63
2022/11/06 13:42:33;;;;;;;4.43;2.00;;;;;;;;;;5092872;28;20824;-63
2022/11/06 13:45:01;;;;;;;3.70;2.30;;;;;;;;;;5092953;28;20573;-63
2022/11/06 13:47:34;;;;;;;2.53;2.33;;;;;;;;;;5092699;28;20481;-63
2022/11/06 13:50:04;;;;;;;4.30;2.03;;;;;;;;;;5092858;28;20460;-63
2022/11/06 13:52:35;;;;;;;3.30;2.20;;;;;;;;;;5092964;28;20795;-65
2022/11/06 13:55:06;;;;;;;2.80;1.80;;;;;;;;;;5093069;28;20457;-63
2022/11/06 13:57:47;;;;;;;2.00;1.73;;;;;;;;;;5092945;28;20447;-63
2022/11/06 14:00:18;;;;;;;4.83;2.20;;;;;;;;;;5092793;28;20941;-64
2022/11/06 14:02:53;;;;;;;4.20;2.00;;;;;;;;;;5093228;28;20451;-63
2022/11/06 14:05:46;;;;;;;2.30;2.10;;;;;;;;;;5092670;28;20473;-63
2022/11/06 14:08:15;;;;;;;2.10;2.00;;;;;;;;;;5092409;28;20479;-63
2022/11/06 14:10:48;;;;;;;3.87;2.30;;;;;;;;;;5092310;28;20879;-63
2022/11/06 14:13:17;;;;;;;2.60;2.10;;;;;;;;;;5092867;28;20944;-63
2022/11/06 14:15:45;;;;;;;3.40;2.10;;;;;;;;;;5092689;28;20538;-63
2022/11/06 14:18:14;;;;;;;5.23;2.10;;;;;;;;;;5092643;28;20447;-63
2022/11/06 14:20:41;;;;;;;2.70;2.00;;;;;;;;;;5092627;28;20914;-63
2022/11/06 14:23:26;;;;;;;3.57;2.23;;;;;;;;;;5092371;28;20482;-63
2022/11/06 14:25:58;;;;;;;7.53;5.90;;;;;;;;;;5092270;28;20945;-64
2022/11/06 14:28:31;;;;;;;5.13;2.17;;;;;;;;;;5092580;28;20554;-64
2022/11/06 14:31:00;;;;;;;2.00;1.80;;;;;;;;;;5092369;28;20447;-63
2022/11/06 14:33:51;;;;;;;2.23;1.77;;;;;;;;;;5092351;28;20457;-64
2022/11/06 14:36:29;;;;;;;5.77;2.07;;;;;;;;;;5077190;28;21005;-63
2022/11/06 14:38:55;;;;;;;2.83;1.83;;;;;;;;;;5092462;28;20448;-64
2022/11/06 14:41:49;;;;;;;2.10;2.00;;;;;;;;;;5092448;28;20545;-64
2022/11/06 14:44:22;;;;;;;2.33;2.20;;;;;;;;;;5092325;28;20452;-63
2022/11/06 14:46:50;;;;;;;4.20;1.97;;;;;;;;;;5092314;28;20481;-63
2022/11/06 14:49:29;;;;;;;2.50;2.03;;;;;;;;;;5092098;28;20445;-64
2022/11/06 14:51:58;;;;;;;4.80;1.93;;;;;;;;;;5092299;28;20477;-63
2022/11/06 14:54:25;;;;;;;2.13;1.90;;;;;;;;;;5092995;28;20522;-63
2022/11/06 14:56:53;;;;;;;3.53;1.50;;;;;;;;;;5095923;28;20473;-63
2022/11/06 14:59:22;;;;;;;1.83;1.73;;;;;;;;;;5096037;28;20449;-63
2022/11/06 15:01:55;;;;;;;1.97;1.73;;;;;;;;;;5095910;28;20535;-64
2022/11/06 15:04:23;;;;;;;2.60;1.60;;;;;;;;;;5095767;28;20547;-64